Terminal Aerodrome Forecast
Issued by NWS

Home | Current Version | Previous Version | Text Only | Print | Product List | Glossary On
Versions: 1 2 3 4 5 6 7 8 9 10 11 12 13 14 15 16 17
400
FTUS43 KMQT 242323
TAFCMX
TAF
KCMX 242323Z 2500/2524 02010KT 2SM -SN OVC020
      TEMPO 2500/2504 1SM -SN
     FM250400 01010G20KT 1 1/2SM -SN BLSN OVC010
     FM251100 35015G25KT 2SM -SN BLSN OVC015
     FM251400 33015G25KT 3SM -SN BLSN OVC020
     FM251800 32015G25KT P6SM VCSH OVC025=

USA.gov is the U.S. government's official web portal to all federal, state and local government web resources and services.